Time;durP1;ratioP1;P1;durP2;ratioP2;P2;SDS_P1;SDS_P2;PMS_P1;PMS_P2;Temp;Humidity;BMP_temperature;BMP_pressure;BME280_temperature;BME280_humidity;BME280_pressure;Samples;Min_cycle;Max_cycle;Signal;HPM_P1;HPM_P2
2022/07/05 00:03:03;;;;;;;2.10;1.58;;;;;;;15.72;55.03;100831.34;10141315;29;20660;-78
2022/07/05 00:08:07;;;;;;;2.05;1.92;;;;;;;15.53;55.82;100830.41;10139300;29;20157;-78
2022/07/05 00:13:11;;;;;;;4.63;1.65;;;;;;;15.27;56.39;100836.38;10141893;29;20160;-78
2022/07/05 00:18:15;;;;;;;3.03;1.38;;;;;;;15.60;56.23;100839.63;10140759;29;20107;-78
2022/07/05 00:23:18;;;;;;;3.53;1.80;;;;;;;15.74;56.07;100840.16;10142449;29;20741;-78
2022/07/05 00:28:23;;;;;;;4.80;2.60;;;;;;;15.29;56.50;100846.22;10141226;29;20517;-78
2022/07/05 00:33:25;;;;;;;5.07;1.80;;;;;;;15.15;56.45;100840.25;10154802;29;20059;-78
2022/07/05 00:38:28;;;;;;;4.10;1.90;;;;;;;15.09;56.63;100834.56;10168481;29;20055;-77
2022/07/05 00:43:33;;;;;;;6.05;1.90;;;;;;;15.14;56.65;100843.94;10140718;29;20059;-78
2022/07/05 00:48:36;;;;;;;5.80;2.30;;;;;;;15.22;56.49;100838.69;10133671;29;20071;-78
2022/07/05 00:53:39;;;;;;;2.58;2.00;;;;;;;15.01;57.69;100840.66;10115066;29;20062;-78
2022/07/05 00:58:43;;;;;;;4.15;2.15;;;;;;;15.17;57.34;100849.06;10120757;29;20054;-78
2022/07/05 01:03:47;;;;;;;4.45;1.77;;;;;;;15.26;57.12;100852.75;10140513;29;20052;-78
2022/07/05 01:08:50;;;;;;;1.63;1.50;;;;;;;15.28;56.70;100850.78;10141398;29;20176;-78
2022/07/05 01:13:55;;;;;;;2.08;1.70;;;;;;;15.19;56.55;100851.63;10138743;29;20486;-78
2022/07/05 01:19:00;;;;;;;2.58;1.50;;;;;;;15.30;56.37;100853.31;10114679;29;20119;-78
2022/07/05 01:24:04;;;;;;;1.90;1.80;;;;;;;15.05;57.11;100858.31;10123376;29;20052;-78
2022/07/05 01:29:09;;;;;;;4.15;2.03;;;;;;;14.52;58.42;100850.56;10138996;29;20060;-78
2022/07/05 01:34:12;;;;;;;2.03;1.88;;;;;;;14.85;57.18;100837.69;10142476;29;21818;-78
2022/07/05 01:39:17;;;;;;;2.30;1.80;;;;;;;14.70;57.89;100848.91;10136832;29;20429;-78
2022/07/05 01:44:20;;;;;;;5.28;1.85;;;;;;;14.72;57.60;100851.47;10134180;29;21100;-78
2022/07/05 01:49:24;;;;;;;6.60;2.20;;;;;;;14.86;56.93;100856.44;10134256;29;20123;-77
2022/07/05 01:54:29;;;;;;;3.45;1.83;;;;;;;15.06;56.79;100849.22;10136459;29;21291;-77
2022/07/05 01:59:34;;;;;;;7.35;2.00;;;;;;;14.74;57.22;100853.03;10144007;29;20076;-77
2022/07/05 02:04:38;;;;;;;2.88;1.92;;;;;;;14.91;57.84;100848.78;10129341;29;20060;-78
2022/07/05 02:16:14;;;;;;;1.95;1.40;;;;;;;14.95;57.99;100855.63;10131755;29;20713;-77
2022/07/05 02:21:17;;;;;;;2.88;1.92;;;;;;;15.16;57.50;100841.09;10110278;29;20048;-78
2022/07/05 02:26:22;;;;;;;3.83;1.70;;;;;;;15.26;57.63;100858.19;10117315;29;20195;-77
2022/07/05 02:31:27;;;;;;;2.55;1.80;;;;;;;15.29;57.28;100857.03;10127953;29;20067;-77
2022/07/05 02:36:31;;;;;;;2.28;1.73;;;;;;;15.21;57.65;100855.03;10132076;29;20048;-77
2022/07/05 02:41:35;;;;;;;1.65;1.55;;;;;;;15.19;57.65;100855.22;10117448;29;20071;-77
2022/07/05 02:53:26;;;;;;;2.25;1.80;;;;;;;15.30;57.48;100856.03;10133463;29;20056;-78
2022/07/05 02:58:29;;;;;;;3.15;1.65;;;;;;;15.27;57.88;100855.31;10132499;29;20054;-78
2022/07/05 03:03:33;;;;;;;1.55;1.42;;;;;;;15.07;58.80;100861.75;10127069;29;20054;-77
2022/07/05 03:08:38;;;;;;;5.20;2.22;;;;;;;15.07;58.83;100864.44;10114870;29;20172;-77
2022/07/05 03:13:42;;;;;;;3.85;1.85;;;;;;;15.18;59.01;100858.88;10115521;29;20064;-77
2022/07/05 03:18:46;;;;;;;6.45;2.17;;;;;;;15.54;58.51;100871.84;10125510;29;20142;-77
2022/07/05 03:23:50;;;;;;;2.67;1.75;;;;;;;15.42;58.28;100873.88;10111704;29;20099;-78
2022/07/05 03:28:54;;;;;;;2.78;1.77;;;;;;;15.54;58.03;100870.00;10123495;29;20048;-77
2022/07/05 03:33:57;;;;;;;2.53;2.33;;;;;;;15.39;57.96;100885.84;10122514;29;20048;-78
2022/07/05 03:39:01;;;;;;;2.00;1.80;;;;;;;15.44;57.82;100879.97;10120009;29;20048;-78
2022/07/05 03:44:05;;;;;;;4.35;1.92;;;;;;;15.48;58.53;100884.13;10122408;29;20379;-77
2022/07/05 03:49:10;;;;;;;4.18;1.98;;;;;;;15.59;57.93;100880.41;10122196;29;20075;-77
2022/07/05 03:54:14;;;;;;;2.13;2.03;;;;;;;15.60;58.08;100882.94;10137425;29;20059;-77
2022/07/05 03:59:18;;;;;;;3.25;1.95;;;;;;;15.73;58.01;100881.81;10122199;29;20048;-77
2022/07/05 04:04:22;;;;;;;2.80;2.60;;;;;;;15.69;58.05;100882.09;10117200;29;20044;-77
2022/07/05 04:09:27;;;;;;;6.78;2.10;;;;;;;15.34;58.78;100903.47;10122204;29;20048;-77
2022/07/05 04:14:31;;;;;;;5.28;2.80;;;;;;;15.33;59.45;100901.75;10118052;29;20127;-77
2022/07/05 04:19:34;;;;;;;2.45;2.25;;;;;;;15.46;59.48;100907.78;10124712;29;20123;-77
2022/07/05 04:29:56;;;;;;;4.95;2.30;;;;;;;15.99;58.39;100901.84;10116678;29;20568;-76
2022/07/05 04:35:00;;;;;;;4.47;2.42;;;;;;;16.06;57.63;100904.81;10133880;29;20064;-77
2022/07/05 04:40:05;;;;;;;4.47;2.38;;;;;;;16.18;56.87;100906.34;10139574;29;20553;-77
2022/07/05 04:45:09;;;;;;;4.88;2.40;;;;;;;16.34;55.88;100913.84;10153395;29;20047;-77
2022/07/05 04:50:14;;;;;;;3.60;2.35;;;;;;;16.50;55.82;100907.78;10135432;29;20048;-77
2022/07/05 04:55:19;;;;;;;4.22;2.15;;;;;;;16.40;56.04;100916.00;10128528;29;20651;-77
2022/07/05 05:00:22;;;;;;;2.60;2.05;;;;;;;16.43;56.57;100939.22;10136423;29;20103;-78
2022/07/05 05:05:25;;;;;;;2.45;2.03;;;;;;;16.35;56.61;100932.69;10137864;29;20530;-77
2022/07/05 05:10:29;;;;;;;3.85;2.40;;;;;;;16.36;55.92;100928.97;10136215;29;20683;-77
2022/07/05 05:15:32;;;;;;;4.80;2.40;;;;;;;16.30;55.63;100932.28;10138871;29;20096;-77
2022/07/05 05:20:35;;;;;;;2.53;2.33;;;;;;;16.02;56.95;100936.78;10137826;29;20056;-77
2022/07/05 05:25:43;;;;;;;2.85;2.53;;;;;;;16.12;57.64;100932.16;10136841;29;20069;-77
2022/07/05 05:30:47;;;;;;;5.57;2.20;;;;;;;16.27;58.09;100934.44;10134717;29;20162;-79
2022/07/05 05:35:50;;;;;;;2.75;2.50;;;;;;;16.58;57.18;100943.16;10139931;29;20048;-79
2022/07/05 05:40:54;;;;;;;3.10;2.30;;;;;;;16.47;58.06;100944.19;10121482;29;20059;-77
2022/07/05 05:45:57;;;;;;;6.55;2.10;;;;;;;16.48;57.07;100951.34;10139774;29;20052;-78
2022/07/05 05:51:00;;;;;;;2.22;1.85;;;;;;;16.75;56.93;100953.19;10127944;29;20063;-81
2022/07/05 05:56:05;;;;;;;4.55;2.28;;;;;;;17.08;56.25;100966.28;10144108;29;20052;-79
2022/07/05 06:01:08;;;;;;;3.67;2.33;;;;;;;16.51;56.41;100967.31;10146711;29;20060;-79
2022/07/05 06:06:11;;;;;;;5.18;2.63;;;;;;;16.95;55.79;100972.94;10148527;29;20071;-79
2022/07/05 06:11:15;;;;;;;3.38;2.10;;;;;;;17.39;55.64;100978.53;10138501;29;20055;-77
2022/07/05 06:16:18;;;;;;;4.63;1.90;;;;;;;17.73;55.66;100980.53;10141690;29;20055;-79
2022/07/05 06:21:21;;;;;;;4.18;2.00;;;;;;;17.93;54.25;100979.34;10137230;29;20403;-79
2022/07/05 06:26:26;;;;;;;3.13;1.92;;;;;;;17.97;53.92;100981.78;10139766;29;20078;-78
2022/07/05 06:31:29;;;;;;;5.05;2.00;;;;;;;17.60;55.13;100993.66;10144455;29;20066;-79
2022/07/05 06:36:32;;;;;;;3.65;1.80;;;;;;;17.72;54.13;100995.16;10160364;29;20336;-79
2022/07/05 06:41:37;;;;;;;2.75;1.80;;;;;;;17.69;53.71;100982.72;10137195;29;20600;-78
2022/07/05 06:46:40;;;;;;;1.90;1.73;;;;;;;18.13;52.29;100984.63;10142197;29;20052;-79
2022/07/05 06:51:43;;;;;;;4.18;1.83;;;;;;;18.33;50.83;100988.00;10146088;29;20048;-79
2022/07/05 06:56:47;;;;;;;1.60;1.50;;;;;;;18.90;50.33;100984.75;10148437;29;20048;-78
2022/07/05 07:01:50;;;;;;;1.33;1.20;;;;;;;18.85;50.53;100987.09;10146236;29;20052;-79
2022/07/05 07:12:32;;;;;;;3.17;1.30;;;;;;;18.71;48.59;100981.22;10147831;29;20056;-79
2022/07/05 07:17:35;;;;;;;2.05;0.95;;;;;;;19.13;47.11;100993.13;10147034;29;20048;-78
2022/07/05 07:22:38;;;;;;;2.67;1.05;;;;;;;19.94;44.96;100992.44;10145657;29;20040;-77
2022/07/05 07:27:47;;;;;;;1.27;0.90;;;;;;;22.13;41.71;100984.38;10121839;29;20055;-80
2022/07/05 07:32:50;;;;;;;1.45;0.80;;;;;;;25.00;36.21;100976.19;10152662;29;20048;-79
2022/07/05 07:37:53;;;;;;;1.55;0.47;;;;;;;25.71;31.84;100992.28;10149459;29;20056;-78
2022/07/05 07:42:57;;;;;;;1.60;0.60;;;;;;;23.49;33.48;101000.38;10133702;29;20040;-79
2022/07/05 07:48:00;;;;;;;1.33;0.47;;;;;;;23.00;33.06;101001.03;10142956;29;20063;-78
2022/07/05 07:53:02;;;;;;;2.28;0.60;;;;;;;25.20;33.07;100998.28;10119056;29;20521;-78
2022/07/05 07:58:07;;;;;;;2.75;0.65;;;;;;;26.00;30.89;100990.16;10142918;29;20084;-79
2022/07/05 08:03:10;;;;;;;2.50;0.98;;;;;;;23.78;33.44;100993.97;10145366;29;20056;-79
2022/07/05 08:08:12;;;;;;;1.48;0.70;;;;;;;23.75;34.06;100997.06;10143481;29;20425;-79
2022/07/05 08:13:17;;;;;;;1.80;0.70;;;;;;;23.71;33.65;100998.50;10141544;29;20091;-78
2022/07/05 08:23:40;;;;;;;2.75;0.75;;;;;;;23.89;33.05;100989.84;10118754;29;20063;-77
2022/07/05 08:28:45;;;;;;;1.63;0.60;;;;;;;24.46;34.43;100988.78;10139706;29;20056;-78
2022/07/05 08:34:08;;;;;;;1.88;1.00;;;;;;;23.69;34.31;100984.13;10141556;29;20075;-77
2022/07/05 08:39:11;;;;;;;2.72;1.20;;;;;;;22.28;36.37;100988.84;10140430;29;20063;-78
2022/07/05 08:44:18;;;;;;;4.32;1.02;;;;;;;22.69;36.60;100980.22;10134761;29;20062;-76
2022/07/05 08:49:24;;;;;;;1.85;0.93;;;;;;;23.65;35.59;100982.81;10141633;29;20466;-78
2022/07/05 08:54:26;;;;;;;3.38;0.70;;;;;;;23.05;36.28;100984.03;10137152;29;20963;-78
2022/07/05 08:59:31;;;;;;;1.23;0.80;;;;;;;21.59;36.13;100997.13;10135818;29;20055;-78
2022/07/05 09:04:37;;;;;;;2.85;0.70;;;;;;;21.41;36.15;101002.88;10140655;29;20055;-78
2022/07/05 09:09:43;;;;;;;3.13;0.82;;;;;;;21.54;35.83;100996.81;10140888;29;20063;-77
2022/07/05 09:14:48;;;;;;;2.67;0.70;;;;;;;22.19;34.48;100992.72;10138537;29;20048;-78
2022/07/05 09:20:08;;;;;;;1.13;0.85;;;;;;;23.17;33.94;100983.34;10140244;29;20071;-77
2022/07/05 09:25:18;;;;;;;1.73;0.70;;;;;;;23.24;34.20;100988.94;10133662;29;20063;-77
2022/07/05 09:30:32;;;;;;;1.98;0.75;;;;;;;24.54;31.12;100988.63;10138795;29;20154;-77
2022/07/05 09:35:35;;;;;;;1.52;0.90;;;;;;;24.51;32.08;100985.44;10115551;29;20139;-78
2022/07/05 09:40:48;;;;;;;2.03;0.98;;;;;;;23.36;33.37;100992.84;10139601;29;20430;-78
2022/07/05 09:45:53;;;;;;;3.33;0.90;;;;;;;21.88;34.25;100993.66;10135407;29;20057;-78
2022/07/05 09:51:06;;;;;;;2.17;0.70;;;;;;;22.13;34.76;100989.84;10138883;29;20056;-77
2022/07/05 09:56:29;;;;;;;2.83;0.82;;;;;;;23.16;33.90;100984.41;10136351;29;20092;-77
2022/07/05 10:01:36;;;;;;;2.67;0.80;;;;;;;23.03;33.27;100992.44;10139865;29;20059;-77
2022/07/05 10:06:39;;;;;;;2.70;1.08;;;;;;;22.90;33.34;100997.75;10138952;29;20506;-78
2022/07/05 10:11:43;;;;;;;2.80;0.90;;;;;;;21.13;36.67;100999.81;10120452;29;20055;-78
2022/07/05 10:16:56;;;;;;;2.17;0.80;;;;;;;21.85;34.84;100994.03;10137327;29;21041;-78
2022/07/05 10:22:00;;;;;;;0.80;0.80;;;;;;;22.46;33.99;100996.75;10134163;29;20048;-78
2022/07/05 10:27:23;;;;;;;3.40;0.80;;;;;;;23.02;33.84;100987.16;10126474;29;20059;-77
2022/07/05 10:32:29;;;;;;;2.45;0.70;;;;;;;22.63;34.46;100980.13;10126208;29;20055;-77
2022/07/05 10:37:34;;;;;;;0.88;0.88;;;;;;;23.11;33.05;100981.41;10147177;29;21182;-77
2022/07/05 10:42:41;;;;;;;1.13;0.70;;;;;;;22.38;34.77;100984.97;10142744;29;20048;-78
2022/07/05 10:48:16;;;;;;;1.35;1.10;;;;;;;23.87;32.09;100978.22;10144047;29;20056;-78
2022/07/05 10:53:21;;;;;;;2.47;0.88;;;;;;;22.07;34.74;100975.88;10149840;29;20170;-78
2022/07/05 10:58:32;;;;;;;1.35;0.70;;;;;;;22.92;33.50;100974.59;10145598;29;20141;-77
2022/07/05 11:03:38;;;;;;;1.27;0.80;;;;;;;24.08;32.36;100969.94;10128969;29;20139;-77
2022/07/05 11:09:14;;;;;;;1.27;1.00;;;;;;;23.44;31.86;100965.31;10148119;29;20143;-79
2022/07/05 11:14:38;;;;;;;2.05;1.00;;;;;;;22.68;33.59;100966.69;10142033;29;21257;-78
2022/07/05 11:20:04;;;;;;;1.00;0.90;;;;;;;24.12;32.97;100967.63;10121497;29;20055;-77
2022/07/05 11:25:09;;;;;;;1.60;1.00;;;;;;;26.08;30.38;100962.44;10127712;29;20525;-77
2022/07/05 11:30:23;;;;;;;3.17;0.90;;;;;;;24.17;33.04;100972.53;10140538;29;20539;-77
2022/07/05 11:35:34;;;;;;;1.70;1.00;;;;;;;24.08;32.46;100971.84;10120853;29;20055;-78
2022/07/05 11:40:38;;;;;;;2.72;0.70;;;;;;;25.97;31.52;100963.94;10140133;29;20063;-78
2022/07/05 11:45:41;;;;;;;1.00;0.70;;;;;;;25.38;30.86;100959.19;10138398;29;21221;-77
2022/07/05 11:50:45;;;;;;;1.33;0.80;;;;;;;24.31;32.40;100960.59;10141198;29;20059;-78
2022/07/05 11:55:55;;;;;;;0.80;0.70;;;;;;;25.70;30.31;100949.34;10138055;29;20060;-77
2022/07/05 12:00:58;;;;;;;2.08;0.90;;;;;;;27.01;28.32;100937.41;10147645;29;20080;-78
2022/07/05 12:06:13;;;;;;;1.23;0.95;;;;;;;25.33;30.79;100937.81;10147336;29;20059;-78
2022/07/05 12:16:37;;;;;;;1.95;1.05;;;;;;;26.61;28.52;100929.31;10142331;29;20052;-78
2022/07/05 12:21:53;;;;;;;4.40;0.90;;;;;;;25.99;29.25;100926.03;10138991;29;20044;-78
2022/07/05 12:26:56;;;;;;;4.25;1.15;;;;;;;25.22;30.60;100932.09;10139181;29;20040;-78
2022/07/05 12:32:01;;;;;;;0.80;0.60;;;;;;;27.32;28.72;100921.97;10124120;29;20044;-76
2022/07/05 12:37:06;;;;;;;7.18;0.80;;;;;;;29.15;26.75;100915.88;10136622;29;20043;-77
2022/07/05 12:42:09;;;;;;;0.80;0.73;;;;;;;25.25;29.31;100931.69;10141759;29;20045;-77
2022/07/05 12:47:11;;;;;;;3.60;0.70;;;;;;;26.26;28.34;100924.09;10140491;29;20060;-77
2022/07/05 12:52:16;;;;;;;1.90;1.00;;;;;;;26.84;28.73;100911.44;10137482;29;20065;-78
2022/07/05 13:02:41;;;;;;;3.40;0.80;;;;;;;26.31;29.82;100936.41;10142048;29;20059;-77
2022/07/05 13:07:46;;;;;;;0.70;0.70;;;;;;;24.74;30.77;100941.22;10142926;29;20063;-77
2022/07/05 13:12:57;;;;;;;1.38;1.00;;;;;;;24.90;31.27;100942.75;10142761;29;20052;-77
2022/07/05 13:18:00;;;;;;;2.47;0.70;;;;;;;25.35;30.38;100926.63;10139646;29;20048;-77
2022/07/05 13:23:04;;;;;;;1.60;0.85;;;;;;;24.63;31.85;100923.44;10138896;29;20067;-77
2022/07/05 13:28:08;;;;;;;2.47;0.70;;;;;;;26.44;30.45;100917.06;10138542;29;20059;-77
2022/07/05 13:33:11;;;;;;;1.55;0.80;;;;;;;26.25;29.59;100935.34;10137730;29;20047;-77
2022/07/05 13:38:15;;;;;;;1.75;0.73;;;;;;;27.37;27.80;100919.38;10122591;29;20054;-77
2022/07/05 13:43:18;;;;;;;1.00;0.90;;;;;;;26.51;28.30;100912.38;10120526;29;20051;-76
2022/07/05 13:48:21;;;;;;;0.70;0.70;;;;;;;25.89;29.53;100920.13;10141223;29;20138;-77
2022/07/05 13:53:26;;;;;;;0.90;0.80;;;;;;;27.12;28.15;100908.31;10143362;29;20075;-76
2022/07/05 13:58:29;;;;;;;1.60;0.90;;;;;;;26.72;28.50;100912.09;10137883;29;20065;-77
2022/07/05 14:03:32;;;;;;;0.93;0.90;;;;;;;26.19;28.92;100914.13;10128672;29;20698;-77
2022/07/05 14:08:36;;;;;;;4.20;0.90;;;;;;;25.63;30.54;100913.56;10152076;29;20048;-77
2022/07/05 14:13:39;;;;;;;1.10;0.80;;;;;;;26.31;28.75;100898.69;10155175;29;20154;-77
2022/07/05 14:18:42;;;;;;;3.00;0.73;;;;;;;24.30;31.11;100909.50;10150057;29;20056;-77
2022/07/05 14:23:47;;;;;;;1.85;1.00;;;;;;;24.80;30.81;100901.94;10135661;29;20062;-77
2022/07/05 14:28:50;;;;;;;2.22;0.80;;;;;;;26.54;30.20;100892.66;10136522;29;20392;-77
2022/07/05 14:33:53;;;;;;;1.10;1.10;;;;;;;27.65;29.18;100887.81;10105044;29;20052;-77
2022/07/05 14:39:00;;;;;;;3.30;0.88;;;;;;;29.62;25.94;100881.97;10133022;29;20044;-77
2022/07/05 14:44:03;;;;;;;1.25;0.70;;;;;;;29.61;26.02;100885.81;10131728;29;20047;-77
2022/07/05 14:49:06;;;;;;;1.67;0.90;;;;;;;27.92;26.47;100878.22;10135125;29;20440;-77
2022/07/05 14:54:10;;;;;;;1.10;0.95;;;;;;;25.99;28.70;100886.66;10133676;29;20182;-77
2022/07/05 14:59:13;;;;;;;2.70;0.90;;;;;;;25.22;30.32;100894.47;10131853;29;20048;-77
2022/07/05 15:04:16;;;;;;;2.22;0.70;;;;;;;25.01;31.47;100873.44;10133473;29;20056;-77
2022/07/05 15:09:20;;;;;;;1.02;0.80;;;;;;;25.23;30.95;100874.16;10132733;29;20059;-77
2022/07/05 15:14:23;;;;;;;3.63;0.70;;;;;;;25.51;30.73;100875.88;10122068;29;20100;-77
2022/07/05 15:19:27;;;;;;;5.72;1.13;;;;;;;24.29;31.88;100867.44;10136061;29;20047;-77
2022/07/05 15:24:31;;;;;;;2.38;1.00;;;;;;;24.23;31.82;100871.00;10133324;29;20446;-77
2022/07/05 15:29:35;;;;;;;1.30;0.93;;;;;;;24.74;30.90;100869.81;10121120;29;20191;-77
2022/07/05 15:34:38;;;;;;;4.38;0.88;;;;;;;25.84;30.31;100854.72;10138602;29;20163;-77
2022/07/05 15:39:42;;;;;;;2.63;0.70;;;;;;;24.76;30.36;100852.03;10138724;29;20131;-76
2022/07/05 15:44:45;;;;;;;1.80;0.70;;;;;;;24.66;31.44;100859.84;10140028;29;20830;-77
2022/07/05 15:50:01;;;;;;;1.50;0.73;;;;;;;26.98;28.84;100838.63;10146102;29;20044;-77
2022/07/05 15:55:07;;;;;;;0.85;0.63;;;;;;;24.73;30.21;100860.69;10129546;29;20425;-77
2022/07/05 16:00:11;;;;;;;1.08;0.70;;;;;;;23.88;31.64;100850.97;10137170;29;20044;-77
2022/07/05 16:05:13;;;;;;;2.25;0.60;;;;;;;23.54;32.75;100858.06;10120766;29;20050;-78
2022/07/05 16:10:19;;;;;;;2.33;0.70;;;;;;;24.46;32.69;100857.00;10141270;29;20067;-76
2022/07/05 16:21:00;;;;;;;5.55;1.00;;;;;;;25.40;30.66;100849.84;10144276;29;20130;-77
2022/07/05 16:26:13;;;;;;;0.85;0.60;;;;;;;26.52;29.90;100856.22;10141288;29;20084;-77
2022/07/05 16:31:17;;;;;;;3.15;0.93;;;;;;;27.74;28.57;100854.16;10136981;29;20063;-77
2022/07/05 16:36:21;;;;;;;2.38;0.80;;;;;;;26.39;30.68;100853.56;10137714;29;20055;-77
2022/07/05 16:41:26;;;;;;;2.30;0.85;;;;;;;25.08;33.04;100870.75;10137586;29;20055;-77
2022/07/05 16:46:28;;;;;;;3.10;1.27;;;;;;;24.46;34.77;100867.97;10137115;29;20537;-77
2022/07/05 16:51:31;;;;;;;2.28;1.38;;;;;;;24.44;35.12;100867.34;10117974;29;20075;-77
2022/07/05 16:56:36;;;;;;;2.70;1.30;;;;;;;24.39;35.81;100864.34;10133371;29;21178;-77
2022/07/05 17:01:38;;;;;;;2.05;0.80;;;;;;;24.83;35.92;100870.47;10134919;29;20742;-77
2022/07/05 17:06:41;;;;;;;4.50;1.10;;;;;;;28.69;30.91;100863.97;10136839;29;20560;-77
2022/07/05 17:11:46;;;;;;;4.45;1.10;;;;;;;30.95;27.94;100859.09;10136554;29;20075;-78
2022/07/05 17:16:48;;;;;;;2.90;1.25;;;;;;;28.25;29.72;100875.13;10140830;29;20116;-78
2022/07/05 17:21:51;;;;;;;3.65;1.17;;;;;;;24.84;34.51;100883.97;10140586;29;20052;-78
2022/07/05 17:26:56;;;;;;;3.15;1.17;;;;;;;25.05;35.19;100885.75;10123948;29;20059;-78
2022/07/05 17:31:59;;;;;;;4.40;1.50;;;;;;;26.15;33.31;100883.44;10136447;29;20609;-82
2022/07/05 17:37:02;;;;;;;3.45;1.20;;;;;;;26.33;32.83;100895.69;10145062;29;20147;-78
2022/07/05 17:42:07;;;;;;;3.70;1.20;;;;;;;24.25;35.87;100898.28;10148843;29;20051;-78
2022/07/05 17:47:11;;;;;;;5.72;1.35;;;;;;;23.20;38.22;100903.53;10148325;29;20487;-77
2022/07/05 17:52:14;;;;;;;2.25;1.17;;;;;;;23.27;38.36;100910.97;10140737;29;21174;-77
2022/07/05 17:57:18;;;;;;;1.70;1.27;;;;;;;22.49;40.32;100916.09;10137877;29;21759;-77
2022/07/05 18:02:21;;;;;;;2.75;1.33;;;;;;;22.31;40.05;100927.44;10141742;29;20550;-77
2022/07/05 18:07:24;;;;;;;4.85;1.30;;;;;;;21.87;40.87;100923.59;10143518;29;20052;-77
2022/07/05 18:12:28;;;;;;;6.20;1.08;;;;;;;21.66;41.36;100924.28;10143671;29;20056;-78
2022/07/05 18:17:36;;;;;;;3.17;1.20;;;;;;;21.40;41.66;100942.94;10141057;29;20126;-78
2022/07/05 18:22:39;;;;;;;4.18;1.00;;;;;;;21.22;41.70;100935.88;10122840;29;20138;-77
2022/07/05 18:27:43;;;;;;;6.78;1.00;;;;;;;21.21;41.33;100928.72;10141700;29;20108;-77
2022/07/05 18:32:46;;;;;;;3.08;1.05;;;;;;;21.32;41.35;100932.94;10140727;29;20072;-77
2022/07/05 18:37:49;;;;;;;2.10;1.10;;;;;;;20.58;42.88;100940.66;10142898;29;20133;-77
2022/07/05 18:42:53;;;;;;;2.35;1.00;;;;;;;20.60;42.67;100940.44;10139243;29;20056;-77
2022/07/05 18:47:56;;;;;;;3.75;0.95;;;;;;;20.45;42.77;100941.19;10145230;29;20056;-76
2022/07/05 18:52:59;;;;;;;1.67;0.93;;;;;;;20.59;42.45;100946.94;10129342;29;20063;-77
2022/07/05 18:58:03;;;;;;;4.22;1.00;;;;;;;20.43;42.80;100946.00;10147626;29;20052;-77
2022/07/05 19:03:06;;;;;;;3.83;1.10;;;;;;;20.61;42.82;100961.28;10146146;29;20051;-77
2022/07/05 19:13:46;;;;;;;4.85;1.10;;;;;;;20.84;42.93;100966.81;10154137;29;20060;-77
2022/07/05 19:18:50;;;;;;;4.53;1.02;;;;;;;20.64;43.18;100967.22;10118608;29;20255;-77
2022/07/05 19:23:52;;;;;;;3.10;1.00;;;;;;;20.46;43.70;100966.59;10148900;29;20048;-77
2022/07/05 19:28:57;;;;;;;2.97;0.80;;;;;;;20.32;44.29;100970.91;10144823;29;21405;-78
2022/07/05 19:34:00;;;;;;;6.13;1.23;;;;;;;20.02;44.78;100984.25;10146914;29;20149;-78
2022/07/05 19:39:03;;;;;;;3.42;1.30;;;;;;;19.63;45.69;100986.78;10146069;29;20111;-78
2022/07/05 19:44:07;;;;;;;2.78;0.82;;;;;;;19.44;46.23;100980.63;10123003;29;20562;-78
2022/07/05 19:49:10;;;;;;;4.75;1.23;;;;;;;19.37;46.60;100986.91;10144925;29;20074;-78
2022/07/05 19:54:13;;;;;;;3.60;0.90;;;;;;;19.32;47.02;100992.00;10126812;29;20047;-77
2022/07/05 19:59:17;;;;;;;4.72;1.00;;;;;;;19.26;47.48;101003.56;10114501;29;20052;-77
2022/07/05 20:04:20;;;;;;;5.22;1.00;;;;;;;19.23;47.62;101002.03;10153208;29;20056;-77
2022/07/05 20:09:23;;;;;;;3.70;1.00;;;;;;;19.21;48.06;101009.50;10148620;29;20143;-77
2022/07/05 20:14:29;;;;;;;1.90;1.05;;;;;;;19.08;48.20;101022.72;10146194;29;20070;-77
2022/07/05 20:19:32;;;;;;;3.40;1.45;;;;;;;19.01;48.63;101019.81;10145818;29;20060;-77
2022/07/05 20:24:35;;;;;;;5.20;1.33;;;;;;;19.02;49.00;101027.81;10144289;29;20048;-77
2022/07/05 20:29:40;;;;;;;3.53;1.08;;;;;;;19.01;49.03;101030.72;10141964;29;20055;-77
2022/07/05 20:34:43;;;;;;;4.15;1.10;;;;;;;18.91;49.21;101028.09;10141686;29;20747;-77
2022/07/05 20:39:46;;;;;;;5.63;1.20;;;;;;;18.79;49.64;101038.44;10120839;29;20127;-78
2022/07/05 20:44:50;;;;;;;2.83;1.00;;;;;;;18.77;50.01;101034.13;10138650;29;20082;-77
2022/07/05 20:49:53;;;;;;;4.03;0.88;;;;;;;18.66;50.28;101046.16;10142910;29;20103;-77
2022/07/05 20:54:56;;;;;;;2.90;1.75;;;;;;;18.39;50.52;101049.03;10108582;29;20099;-77
2022/07/05 21:00:08;;;;;;;1.48;0.88;;;;;;;18.29;51.02;101052.72;10139140;29;20040;-78
2022/07/05 21:05:11;;;;;;;4.95;1.10;;;;;;;18.12;51.06;101065.31;10140083;29;20147;-77
2022/07/05 21:10:14;;;;;;;3.25;1.08;;;;;;;18.07;51.82;101064.09;10123558;29;20068;-77
2022/07/05 21:15:19;;;;;;;4.35;1.10;;;;;;;17.86;52.33;101070.69;10143537;29;20100;-78
2022/07/05 21:20:22;;;;;;;2.25;1.10;;;;;;;17.81;52.64;101081.16;10159915;29;20068;-77
2022/07/05 21:25:25;;;;;;;3.13;1.30;;;;;;;17.55;52.47;101091.06;10143986;29;20059;-77
2022/07/05 21:30:29;;;;;;;2.95;1.30;;;;;;;17.38;51.67;101092.75;10137617;29;20064;-77
2022/07/05 21:35:32;;;;;;;3.78;1.30;;;;;;;17.14;52.23;101090.56;10146285;29;20094;-77
2022/07/05 21:40:35;;;;;;;2.05;0.90;;;;;;;17.08;52.46;101093.88;10139097;29;20048;-77
2022/07/05 21:45:39;;;;;;;5.30;1.30;;;;;;;16.98;52.25;101104.78;10144073;29;20111;-77
2022/07/05 21:50:42;;;;;;;3.33;1.42;;;;;;;16.96;52.19;101110.34;10137798;29;20055;-77
2022/07/05 21:55:45;;;;;;;3.03;1.00;;;;;;;16.96;52.19;101126.63;10138550;29;21144;-77
2022/07/05 22:06:09;;;;;;;4.07;1.48;;;;;;;17.07;52.16;101138.31;10132099;29;20106;-77
2022/07/05 22:16:34;;;;;;;1.55;1.20;;;;;;;17.06;52.21;101139.28;10130071;29;20186;-77
2022/07/05 22:21:37;;;;;;;3.75;1.20;;;;;;;17.02;52.36;101145.03;10129709;29;20059;-77
2022/07/05 22:26:40;;;;;;;4.40;1.17;;;;;;;17.02;52.08;101139.59;10137322;29;20426;-77
2022/07/05 22:31:44;;;;;;;3.30;1.15;;;;;;;16.93;52.34;101139.66;10132371;29;20088;-77
2022/07/05 22:36:47;;;;;;;3.78;1.27;;;;;;;16.99;51.97;101139.91;10138378;29;20182;-77
2022/07/05 22:41:50;;;;;;;3.63;1.13;;;;;;;17.00;51.99;101133.47;10129915;29;20522;-77
2022/07/05 22:46:54;;;;;;;3.92;1.15;;;;;;;16.76;52.71;101142.13;10137084;29;20052;-77
2022/07/05 22:51:57;;;;;;;5.60;1.30;;;;;;;16.67;53.03;101134.81;10137612;29;20506;-77
2022/07/05 22:57:00;;;;;;;3.30;1.17;;;;;;;16.76;53.36;101138.56;10137884;29;20148;-77
2022/07/05 23:02:04;;;;;;;3.40;1.00;;;;;;;16.75;53.03;101142.25;10119696;29;20096;-77
2022/07/05 23:07:07;;;;;;;4.00;1.20;;;;;;;16.78;53.21;101150.09;10139080;29;21380;-77
2022/07/05 23:12:10;;;;;;;2.83;1.00;;;;;;;16.61;53.37;101140.84;10133925;29;20071;-76
2022/07/05 23:17:14;;;;;;;4.38;1.52;;;;;;;16.71;53.83;101143.56;10132368;29;20142;-77
2022/07/05 23:22:17;;;;;;;3.33;1.00;;;;;;;16.62;53.68;101144.41;10131462;29;20059;-76
2022/07/05 23:27:20;;;;;;;6.10;1.40;;;;;;;16.14;54.17;101146.97;10133199;29;20517;-77
2022/07/05 23:32:24;;;;;;;2.05;0.90;;;;;;;16.15;54.40;101148.72;10143805;29;20341;-77
2022/07/05 23:37:27;;;;;;;3.95;1.52;;;;;;;15.98;55.14;101154.81;10149455;29;20653;-77
2022/07/05 23:42:30;;;;;;;3.80;1.13;;;;;;;16.10;54.89;101144.72;10146599;29;20055;-77
2022/07/05 23:47:34;;;;;;;4.13;1.30;;;;;;;16.11;54.98;101139.16;10143048;29;20156;-77
2022/07/05 23:52:37;;;;;;;3.25;1.33;;;;;;;16.10;54.89;101145.56;10143200;29;20122;-77
2022/07/05 23:57:40;;;;;;;3.22;1.13;;;;;;;15.84;55.71;101147.09;10141354;29;20081;-77
